Time;durP1;ratioP1;P1;durP2;ratioP2;P2;SDS_P1;SDS_P2;PMS_P1;PMS_P2;Temp;Humidity;BMP_temperature;BMP_pressure;BME280_temperature;BME280_humidity;BME280_pressure;Samples;Min_cycle;Max_cycle;Signal;HPM_P1;HPM_P2
2020/12/17 00:01:20;;;;;;;49.93;23.17;;;;;;;3.97;76.25;99445.50;262024;1101;23495;-78
2020/12/17 00:06:23;;;;;;;45.77;21.13;;;;;;;3.94;75.80;99452.89;261642;1101;23386;-78
2020/12/17 00:11:25;;;;;;;49.70;22.55;;;;;;;3.87;76.22;99457.46;261725;1101;23357;-78
2020/12/17 00:16:28;;;;;;;52.20;22.47;;;;;;;3.88;76.10;99461.73;261371;1101;23384;-78
2020/12/17 00:21:31;;;;;;;46.57;22.87;;;;;;;3.86;76.12;99458.52;261336;1102;23408;-78
2020/12/17 00:26:33;;;;;;;47.70;22.65;;;;;;;3.86;76.16;99455.87;261434;1101;23802;-79
2020/12/17 00:31:35;;;;;;;44.70;21.40;;;;;;;3.86;76.43;99469.12;261767;1101;23408;-79
2020/12/17 00:36:37;;;;;;;46.13;23.23;;;;;;;3.86;76.28;99465.64;261672;1101;23368;-78
2020/12/17 00:41:44;;;;;;;51.30;22.10;;;;;;;3.87;76.32;99480.52;261547;1101;23417;-78
2020/12/17 00:46:49;;;;;;;54.10;25.00;;;;;;;3.92;76.81;99478.00;261460;1101;23419;-78
2020/12/17 00:52:00;;;;;;;53.90;24.80;;;;;;;3.99;76.62;99483.19;261896;1101;23521;-77
2020/12/17 00:57:03;;;;;;;49.73;23.40;;;;;;;4.01;76.29;99481.13;261919;1101;23354;-79
2020/12/17 01:02:05;;;;;;;45.33;22.20;;;;;;;4.00;76.46;99482.16;261656;1101;23420;-78
2020/12/17 01:07:07;;;;;;;46.13;21.70;;;;;;;3.94;76.24;99479.40;261915;1101;23407;-78
2020/12/17 01:12:10;;;;;;;51.10;22.70;;;;;;;3.88;75.99;99474.19;261346;1101;23359;-78
2020/12/17 01:17:14;;;;;;;58.47;26.43;;;;;;;3.87;76.72;99467.27;261492;1101;23407;-77
2020/12/17 01:22:16;;;;;;;52.27;24.20;;;;;;;3.89;76.60;99468.66;261890;1101;23365;-77
2020/12/17 01:27:18;;;;;;;51.73;24.90;;;;;;;3.91;76.87;99477.18;261572;1101;23357;-78
2020/12/17 01:32:20;;;;;;;50.50;23.77;;;;;;;3.91;76.23;99471.88;261599;1101;23318;-78
2020/12/17 01:37:23;;;;;;;44.23;22.83;;;;;;;3.89;76.16;99476.61;261653;1101;23457;-78
2020/12/17 01:42:26;;;;;;;53.85;25.25;;;;;;;3.85;76.02;99470.15;261777;1101;24007;-78
2020/12/17 01:47:37;;;;;;;51.57;25.13;;;;;;;3.85;76.52;99472.80;261605;1101;23357;-78
2020/12/17 01:52:41;;;;;;;51.80;24.67;;;;;;;3.84;76.59;99457.12;261392;1101;23362;-78
2020/12/17 01:57:46;;;;;;;49.10;24.13;;;;;;;3.85;76.35;99456.89;261362;1102;26418;-78
2020/12/17 02:02:48;;;;;;;57.53;24.40;;;;;;;3.87;76.60;99465.41;261536;1101;23899;-78
2020/12/17 02:07:51;;;;;;;42.60;19.50;;;;;;;3.85;76.87;99466.70;261716;1101;23361;-79
2020/12/17 02:12:54;;;;;;;59.83;24.07;;;;;;;3.80;76.48;99458.61;261910;1101;26357;-78
2020/12/17 02:17:58;;;;;;;53.40;24.00;;;;;;;3.73;76.38;99458.70;261512;1102;23415;-78
2020/12/17 02:23:01;;;;;;;47.90;21.03;;;;;;;3.66;76.07;99452.70;261642;1101;23350;-77
2020/12/17 02:28:03;;;;;;;43.63;21.83;;;;;;;3.58;76.49;99440.56;261971;1102;23365;-76
2020/12/17 02:33:10;;;;;;;45.20;23.30;;;;;;;3.48;76.49;99450.91;261637;1101;23905;-77
2020/12/17 02:38:12;;;;;;;58.50;27.05;;;;;;;3.36;76.81;99450.88;261684;1101;23440;-77
2020/12/17 02:43:14;;;;;;;59.30;27.30;;;;;;;3.32;76.80;99447.05;261638;1101;23353;-78
2020/12/17 02:48:17;;;;;;;47.33;23.73;;;;;;;3.24;76.46;99433.06;261620;1101;23502;-78
2020/12/17 02:53:19;;;;;;;55.35;26.35;;;;;;;3.17;76.95;99434.20;261598;1101;26402;-77
2020/12/17 02:58:21;;;;;;;58.93;26.87;;;;;;;3.09;76.95;99437.94;261637;1102;23464;-78
2020/12/17 03:03:26;;;;;;;60.60;27.13;;;;;;;3.05;77.23;99440.25;261206;1102;23407;-79
2020/12/17 03:08:28;;;;;;;57.20;25.50;;;;;;;3.01;77.19;99430.34;261417;1101;23872;-78
2020/12/17 03:13:32;;;;;;;50.95;24.35;;;;;;;2.95;77.50;99437.30;261354;1102;23396;-78
2020/12/17 03:18:34;;;;;;;45.00;22.05;;;;;;;2.91;77.71;99436.95;261445;1101;23365;-78
2020/12/17 03:23:36;;;;;;;47.03;22.57;;;;;;;2.89;77.14;99444.28;261652;1101;23883;-78
2020/12/17 03:28:38;;;;;;;50.80;24.03;;;;;;;2.91;77.66;99441.44;261386;1101;25652;-78
2020/12/17 03:33:42;;;;;;;47.00;22.95;;;;;;;2.94;77.69;99446.29;261674;1101;23419;-78
2020/12/17 03:38:44;;;;;;;47.47;24.27;;;;;;;2.99;78.21;99450.91;261549;1101;23350;-78
2020/12/17 03:43:48;;;;;;;41.75;19.20;;;;;;;2.99;77.77;99454.35;261361;1102;23515;-78
2020/12/17 03:48:54;;;;;;;39.73;21.07;;;;;;;3.01;78.26;99447.02;262298;1102;23354;-78
2020/12/17 03:53:56;;;;;;;42.60;20.65;;;;;;;3.07;77.91;99447.96;261714;1101;23408;-78
2020/12/17 03:58:58;;;;;;;41.17;20.87;;;;;;;3.17;78.29;99444.79;261568;1102;23368;-78
2020/12/17 04:04:03;;;;;;;44.30;22.80;;;;;;;3.16;78.08;99449.29;261858;1101;23407;-79
2020/12/17 04:09:07;;;;;;;37.03;19.30;;;;;;;3.14;77.82;99440.74;261479;1101;26470;-79
2020/12/17 04:14:10;;;;;;;48.10;22.43;;;;;;;3.13;77.74;99438.32;261667;1101;23327;-78
2020/12/17 04:19:12;;;;;;;47.87;22.60;;;;;;;3.14;77.73;99442.59;261382;1101;23454;-78
2020/12/17 04:24:14;;;;;;;47.05;23.65;;;;;;;3.18;78.15;99441.12;261779;1102;23408;-79
2020/12/17 04:29:16;;;;;;;54.60;25.93;;;;;;;3.20;78.02;99444.34;261827;1101;23444;-78
2020/12/17 04:34:18;;;;;;;42.50;22.43;;;;;;;3.19;78.20;99451.48;261523;1101;23408;-77
2020/12/17 04:39:22;;;;;;;45.60;23.10;;;;;;;3.14;77.37;99445.23;261678;1101;23309;-78
2020/12/17 04:44:26;;;;;;;50.90;23.87;;;;;;;3.03;77.46;99444.94;261519;1101;23355;-78
2020/12/17 04:49:50;;;;;;;49.20;23.85;;;;;;;3.03;77.73;99454.73;261399;1101;26330;-78
2020/12/17 04:54:52;;;;;;;43.87;23.00;;;;;;;3.00;77.73;99452.53;261397;1101;23417;-78
2020/12/17 04:59:55;;;;;;;54.43;26.70;;;;;;;2.91;77.62;99457.33;261348;1102;23529;-78
2020/12/17 05:04:58;;;;;;;47.90;24.17;;;;;;;2.84;77.95;99454.74;261404;1101;23636;-78
2020/12/17 05:10:06;;;;;;;43.60;22.03;;;;;;;2.79;77.80;99459.08;261514;1101;23561;-78
2020/12/17 05:15:10;;;;;;;44.23;22.37;;;;;;;2.74;78.19;99462.37;261456;1101;23325;-78
2020/12/17 05:20:16;;;;;;;55.77;30.33;;;;;;;2.68;78.12;99457.97;261650;1101;23961;-78
2020/12/17 05:25:19;;;;;;;55.47;26.77;;;;;;;2.68;78.12;99456.12;261480;1103;24125;-78
2020/12/17 05:30:35;;;;;;;54.88;24.92;;;;;;;2.70;78.15;99461.19;261460;1101;23365;-78
2020/12/17 05:35:40;;;;;;;50.88;24.37;;;;;;;2.67;78.38;99462.45;261497;1101;23419;-79
2020/12/17 05:40:43;;;;;;;55.50;25.77;;;;;;;2.64;78.52;99476.09;261638;1102;23375;-78
2020/12/17 05:45:45;;;;;;;50.20;25.97;;;;;;;2.62;78.53;99469.44;261223;1104;27793;-78
2020/12/17 05:50:58;;;;;;;53.60;26.55;;;;;;;2.63;78.88;99460.45;261627;1102;23354;-79
2020/12/17 05:56:26;;;;;;;48.90;24.93;;;;;;;2.61;79.17;99468.61;261509;1102;23355;-78
2020/12/17 06:01:28;;;;;;;50.50;24.20;;;;;;;2.63;78.53;99476.32;261512;1102;23423;-78
2020/12/17 06:06:39;;;;;;;59.50;28.67;;;;;;;2.68;79.15;99471.98;261444;1101;23464;-78
2020/12/17 06:11:40;;;;;;;69.40;32.17;;;;;;;2.79;78.65;99474.95;261345;1101;23368;-78
2020/12/17 06:16:43;;;;;;;64.03;32.60;;;;;;;2.88;79.06;99482.39;261461;1101;23383;-79
2020/12/17 06:21:45;;;;;;;48.07;25.97;;;;;;;2.94;78.98;99474.58;261649;1101;23894;-78
2020/12/17 06:26:54;;;;;;;56.60;27.80;;;;;;;2.93;78.69;99489.66;261851;1102;23509;-78
2020/12/17 06:31:58;;;;;;;54.53;28.13;;;;;;;2.99;78.53;99490.61;261598;1101;25960;-78
2020/12/17 06:37:03;;;;;;;51.70;27.70;;;;;;;3.04;79.02;99498.70;261645;1101;23354;-78
2020/12/17 06:42:31;;;;;;;53.95;28.15;;;;;;;3.05;79.42;99502.95;261937;1101;25767;-79
2020/12/17 06:47:33;;;;;;;54.87;27.83;;;;;;;3.11;79.09;99503.94;261936;1101;28950;-78
2020/12/17 06:53:12;;;;;;;59.90;30.90;;;;;;;3.12;78.93;99509.00;262735;1102;23404;-78
2020/12/17 06:58:23;;;;;;;58.40;29.03;;;;;;;3.18;78.48;99517.91;262722;1101;23426;-78
2020/12/17 07:03:48;;;;;;;61.60;30.87;;;;;;;3.28;78.64;99520.83;262295;1101;23369;-78
2020/12/17 07:08:55;;;;;;;55.60;28.40;;;;;;;3.32;78.79;99523.85;262257;1096;23807;-78
2020/12/17 07:13:57;;;;;;;61.60;30.45;;;;;;;3.34;78.63;99519.13;262141;1096;23361;-79
2020/12/17 07:19:24;;;;;;;49.63;26.37;;;;;;;3.37;78.33;99534.57;262508;1096;23944;-78
2020/12/17 07:24:39;;;;;;;65.95;31.30;;;;;;;3.37;78.25;99527.45;262571;1101;23408;-78
2020/12/17 07:30:01;;;;;;;77.03;35.03;;;;;;;3.47;78.37;99531.39;262117;1101;23365;-76
2020/12/17 07:35:06;;;;;;;60.30;31.00;;;;;;;3.56;78.32;99527.42;261834;1101;23957;-76
2020/12/17 07:40:39;;;;;;;52.60;28.30;;;;;;;3.63;78.28;99528.14;261912;1101;23354;-75
2020/12/17 07:45:54;;;;;;;63.77;31.10;;;;;;;3.68;78.19;99530.11;265262;1102;23434;-75
2020/12/17 07:50:57;;;;;;;59.37;30.50;;;;;;;3.71;78.05;99533.12;265325;1101;23380;-75
2020/12/17 07:56:00;;;;;;;64.63;31.63;;;;;;;3.76;77.54;99535.92;265125;1101;23400;-76
2020/12/17 08:01:04;;;;;;;58.27;29.37;;;;;;;3.82;77.55;99536.87;262306;1096;23365;-77
2020/12/17 08:06:09;;;;;;;58.10;31.30;;;;;;;3.86;77.74;99538.03;261120;1104;23430;-77
2020/12/17 08:11:12;;;;;;;51.70;27.37;;;;;;;3.91;77.62;99537.34;261823;1097;23400;-76
2020/12/17 08:16:14;;;;;;;50.53;26.37;;;;;;;3.93;77.42;99532.62;261505;1102;23377;-76
2020/12/17 08:21:17;;;;;;;51.27;27.90;;;;;;;3.95;77.52;99533.22;261701;1101;28736;-76
2020/12/17 08:26:21;;;;;;;61.30;30.00;;;;;;;3.99;77.22;99539.69;261915;1101;23407;-75
2020/12/17 08:31:30;;;;;;;67.07;32.27;;;;;;;4.06;77.26;99542.25;262175;1102;23383;-75
2020/12/17 08:36:37;;;;;;;50.03;25.87;;;;;;;4.19;77.22;99549.19;261583;1102;23374;-79
2020/12/17 08:41:46;;;;;;;50.87;27.73;;;;;;;4.29;77.14;99549.44;262360;1101;23323;-76
2020/12/17 08:46:56;;;;;;;48.13;26.03;;;;;;;4.33;76.97;99550.59;263504;1101;23346;-76
2020/12/17 08:51:58;;;;;;;39.90;23.00;;;;;;;4.39;76.59;99556.83;261781;1101;23367;-77
2020/12/17 08:57:06;;;;;;;49.47;24.33;;;;;;;4.43;76.39;99558.80;261836;1097;26994;-76
2020/12/17 09:02:09;;;;;;;50.73;27.03;;;;;;;4.56;76.14;99549.84;261666;1101;23386;-77
2020/12/17 09:07:18;;;;;;;51.57;26.27;;;;;;;4.66;76.25;99543.13;261693;1102;23362;-76
2020/12/17 09:12:28;;;;;;;55.87;28.27;;;;;;;4.59;75.10;99545.92;261452;1101;23408;-75
2020/12/17 09:17:34;;;;;;;;;;;;;;;4.59;75.57;99543.27;261564;1102;23347;-76
2020/12/17 09:22:36;;;;;;;34.80;18.57;;;;;;;4.62;75.06;99546.25;262428;1101;21652;-77
2020/12/17 09:27:41;;;;;;;29.65;16.05;;;;;;;4.51;74.56;99548.91;261717;1101;23665;-76
2020/12/17 09:33:17;;;;;;;26.30;15.37;;;;;;;4.47;74.94;99545.89;261428;1102;23498;-75
2020/12/17 09:38:19;;;;;;;22.70;11.95;;;;;;;4.43;74.32;99545.53;261900;1102;23354;-76
2020/12/17 09:43:22;;;;;;;21.07;12.50;;;;;;;4.45;74.46;99540.81;262218;1101;23561;-76
2020/12/17 09:48:31;;;;;;;21.70;13.27;;;;;;;4.49;73.96;99545.66;261760;1101;23492;-75
2020/12/17 09:53:39;;;;;;;19.65;12.45;;;;;;;4.44;74.34;99539.19;261857;1101;26811;-77
2020/12/17 09:58:46;;;;;;;22.80;11.80;;;;;;;4.52;74.27;99537.23;261792;1102;23353;-76
2020/12/17 10:03:48;;;;;;;17.17;10.67;;;;;;;4.54;73.78;99541.28;261818;1101;23418;-77
2020/12/17 10:08:51;;;;;;;16.80;10.45;;;;;;;4.48;73.52;99528.95;262543;1102;23366;-76
2020/12/17 10:13:53;;;;;;;21.47;11.47;;;;;;;4.42;73.45;99538.63;262189;1101;23358;-76
2020/12/17 10:18:58;;;;;;;21.25;11.85;;;;;;;4.44;73.78;99538.39;261970;1096;23375;-76
2020/12/17 10:24:02;;;;;;;19.63;12.50;;;;;;;4.51;73.55;99539.09;262040;1101;26487;-76
2020/12/17 10:29:06;;;;;;;30.75;18.50;;;;;;;4.52;73.37;99539.89;262553;1101;23467;-78
2020/12/17 10:34:11;;;;;;;25.03;15.50;;;;;;;4.56;73.42;99541.88;262354;1101;23421;-76
2020/12/17 10:39:16;;;;;;;23.87;14.03;;;;;;;4.54;73.60;99533.31;262298;1101;23346;-76
2020/12/17 10:44:21;;;;;;;21.43;12.90;;;;;;;4.51;72.79;99533.78;262468;1101;23415;-73
2020/12/17 10:49:24;;;;;;;20.20;13.05;;;;;;;4.43;73.12;99539.42;262043;1101;23419;-75
2020/12/17 10:54:26;;;;;;;23.17;14.60;;;;;;;4.43;73.26;99534.13;261894;1101;23544;-74
2020/12/17 10:59:28;;;;;;;26.20;14.07;;;;;;;4.50;73.42;99529.51;261639;1100;23491;-75
2020/12/17 11:04:30;;;;;;;22.40;13.80;;;;;;;4.49;72.76;99524.44;261792;1102;23353;-74
2020/12/17 11:09:33;;;;;;;24.55;15.20;;;;;;;4.49;73.02;99524.44;266755;1101;23399;-75
2020/12/17 11:14:35;;;;;;;20.30;12.17;;;;;;;4.52;72.94;99522.14;263303;1101;23446;-75
2020/12/17 11:19:37;;;;;;;19.95;12.60;;;;;;;4.55;72.88;99518.22;261666;1101;23462;-74
2020/12/17 11:24:40;;;;;;;23.70;14.50;;;;;;;4.63;73.68;99521.34;261773;1096;23419;-75
2020/12/17 11:29:42;;;;;;;23.30;14.03;;;;;;;4.62;73.17;99503.78;261788;1103;27010;-75
2020/12/17 11:34:44;;;;;;;28.15;14.10;;;;;;;4.59;73.09;99503.46;262670;1101;23423;-75
2020/12/17 11:39:46;;;;;;;22.23;13.43;;;;;;;4.62;72.95;99495.83;261910;1101;23333;-75
2020/12/17 11:44:53;;;;;;;21.20;12.63;;;;;;;4.67;73.48;99496.98;262028;1101;23424;-77
2020/12/17 11:49:55;;;;;;;27.70;15.40;;;;;;;4.58;72.91;99483.27;261901;1101;23387;-75
2020/12/17 11:54:58;;;;;;;26.50;15.40;;;;;;;4.60;73.20;99487.30;262038;1101;23509;-75
2020/12/17 12:00:05;;;;;;;21.60;13.55;;;;;;;4.55;72.31;99486.38;261876;1101;23359;-75
2020/12/17 12:05:09;;;;;;;21.13;14.27;;;;;;;4.45;72.81;99477.14;261732;1101;23843;-75
2020/12/17 12:10:11;;;;;;;24.37;14.93;;;;;;;4.38;73.37;99475.63;261878;1101;24993;-75
2020/12/17 12:15:13;;;;;;;22.23;14.47;;;;;;;4.34;72.87;99474.47;261783;1101;23375;-74
2020/12/17 12:20:16;;;;;;;22.33;14.20;;;;;;;4.24;73.23;99473.21;261811;1096;24236;-74
2020/12/17 12:25:21;;;;;;;19.00;12.60;;;;;;;4.13;73.68;99468.70;261898;1101;23350;-78
2020/12/17 12:30:23;;;;;;;20.95;12.30;;;;;;;4.02;73.69;99464.19;261840;1101;23548;-75
2020/12/17 12:35:25;;;;;;;15.73;10.67;;;;;;;4.02;74.05;99474.80;261894;1101;23347;-75
2020/12/17 12:40:32;;;;;;;19.30;12.10;;;;;;;4.02;73.95;99472.15;262084;1101;23993;-78
2020/12/17 12:45:34;;;;;;;19.35;12.65;;;;;;;4.01;74.34;99476.63;262124;1101;23920;-75
2020/12/17 12:50:36;;;;;;;17.60;11.53;;;;;;;4.01;74.26;99463.37;261980;1096;23356;-75
2020/12/17 12:55:38;;;;;;;17.30;11.57;;;;;;;4.02;74.10;99469.50;261853;1101;23520;-75
2020/12/17 13:00:42;;;;;;;18.30;11.70;;;;;;;3.99;74.12;99468.10;261905;1101;23367;-77
2020/12/17 13:05:45;;;;;;;20.43;12.57;;;;;;;3.94;73.84;99466.14;261899;1101;23586;-76
2020/12/17 13:10:48;;;;;;;17.23;10.67;;;;;;;3.84;74.15;99460.57;262049;1096;23361;-78
2020/12/17 13:15:50;;;;;;;16.27;10.57;;;;;;;3.81;74.42;99461.03;262205;1101;23358;-77
2020/12/17 13:20:52;;;;;;;15.53;10.17;;;;;;;3.76;74.75;99459.07;261878;1101;23354;-77
2020/12/17 13:25:54;;;;;;;16.33;10.03;;;;;;;3.80;74.87;99451.45;261853;1101;23422;-76
2020/12/17 13:30:56;;;;;;;19.83;12.13;;;;;;;3.77;74.97;99446.61;261855;1101;23454;-75
2020/12/17 13:35:58;;;;;;;17.67;10.30;;;;;;;3.76;74.89;99445.81;261881;1101;24933;-77
2020/12/17 13:41:00;;;;;;;16.90;10.35;;;;;;;3.76;75.00;99447.64;261878;1101;23432;-77
2020/12/17 13:46:05;;;;;;;20.43;11.90;;;;;;;3.75;74.94;99460.09;261853;1101;23930;-76
2020/12/17 13:51:23;;;;;;;19.77;11.77;;;;;;;3.80;75.52;99453.31;262032;1101;23824;-75
2020/12/17 13:56:29;;;;;;;17.13;10.77;;;;;;;3.79;75.03;99449.83;261789;1101;23616;-76
2020/12/17 14:01:31;;;;;;;30.00;17.70;;;;;;;3.73;75.15;99456.84;262409;1093;23420;-76
2020/12/17 14:06:36;;;;;;;24.90;12.60;;;;;;;3.75;75.30;99456.65;261660;1101;23340;-75
2020/12/17 14:11:40;;;;;;;25.53;13.93;;;;;;;3.76;75.46;99460.89;262210;1097;23495;-75
2020/12/17 14:16:43;;;;;;;33.97;21.37;;;;;;;3.83;75.38;99461.59;262103;1101;23431;-75
2020/12/17 14:21:45;;;;;;;23.15;15.05;;;;;;;3.82;75.28;99462.66;262074;1101;23520;-75
2020/12/17 14:26:47;;;;;;;23.15;14.00;;;;;;;3.76;75.49;99469.67;261767;1101;23639;-76
2020/12/17 14:31:52;;;;;;;21.30;12.10;;;;;;;3.70;75.32;99473.20;261784;1101;23981;-75
2020/12/17 14:36:59;;;;;;;20.20;10.70;;;;;;;3.65;75.88;99472.27;261836;1101;23492;-75
2020/12/17 14:42:02;;;;;;;20.60;11.07;;;;;;;3.59;75.69;99466.83;261847;1101;23565;-77
2020/12/17 14:47:05;;;;;;;19.97;12.53;;;;;;;3.53;76.06;99472.23;262203;1101;23569;-76
2020/12/17 14:52:10;;;;;;;18.63;10.40;;;;;;;3.50;76.11;99472.66;262363;1101;23347;-75
2020/12/17 14:57:14;;;;;;;17.55;11.05;;;;;;;3.46;76.44;99467.02;261931;1101;23420;-76
2020/12/17 15:02:17;;;;;;;17.90;11.13;;;;;;;3.39;76.39;99472.41;262223;1101;23354;-76
2020/12/17 15:07:23;;;;;;;17.37;10.87;;;;;;;3.38;76.55;99473.42;261650;1101;23453;-75
2020/12/17 15:12:25;;;;;;;18.03;11.53;;;;;;;3.39;76.87;99479.55;261752;1101;23940;-76
2020/12/17 15:17:27;;;;;;;15.60;10.50;;;;;;;3.33;76.79;99470.66;261423;1102;23358;-76
2020/12/17 15:22:32;;;;;;;20.57;13.00;;;;;;;3.31;76.57;99467.41;261520;1101;23365;-76
2020/12/17 15:27:35;;;;;;;20.90;11.90;;;;;;;3.31;77.25;99470.06;261632;1101;23338;-76
2020/12/17 15:32:37;;;;;;;25.13;13.63;;;;;;;3.33;77.08;99459.23;261565;1101;23495;-77
2020/12/17 15:37:39;;;;;;;18.73;11.13;;;;;;;3.40;77.49;99460.78;261593;1101;23389;-76
2020/12/17 15:42:42;;;;;;;21.47;11.50;;;;;;;3.42;77.95;99452.61;261679;1102;23328;-75
2020/12/17 15:47:44;;;;;;;18.93;11.47;;;;;;;3.38;77.06;99464.69;261625;1101;23419;-76
2020/12/17 15:52:52;;;;;;;16.40;10.60;;;;;;;3.37;77.53;99465.70;261624;1101;23478;-77
2020/12/17 15:57:54;;;;;;;16.07;10.03;;;;;;;3.37;77.45;99463.89;261539;1101;23313;-76
2020/12/17 16:02:56;;;;;;;17.97;10.00;;;;;;;3.36;77.93;99453.52;261458;1101;26584;-76
2020/12/17 16:07:58;;;;;;;14.33;9.30;;;;;;;3.32;78.29;99461.09;261746;1101;23464;-76
2020/12/17 16:13:04;;;;;;;17.63;10.80;;;;;;;3.33;77.84;99467.19;261465;1101;23490;-76
2020/12/17 16:18:07;;;;;;;16.37;9.83;;;;;;;3.32;77.86;99462.94;261608;1101;23365;-76
2020/12/17 16:23:09;;;;;;;18.67;12.20;;;;;;;3.32;77.92;99468.23;261529;1101;23404;-77
2020/12/17 16:28:11;;;;;;;16.13;10.20;;;;;;;3.33;78.33;99470.66;261415;1102;23405;-77
2020/12/17 16:33:13;;;;;;;16.93;10.73;;;;;;;3.31;78.07;99461.31;261382;1101;25049;-76
2020/12/17 16:38:16;;;;;;;16.57;10.70;;;;;;;3.28;78.42;99467.86;261589;1101;26959;-76
2020/12/17 16:43:18;;;;;;;20.03;12.07;;;;;;;3.27;78.54;99465.44;261377;1101;23363;-76
2020/12/17 16:48:20;;;;;;;19.87;11.20;;;;;;;3.26;78.61;99475.23;261423;1101;23395;-76
2020/12/17 16:53:22;;;;;;;18.57;12.07;;;;;;;3.25;78.67;99477.06;261438;1101;23894;-77
2020/12/17 16:58:24;;;;;;;20.50;12.10;;;;;;;3.23;78.51;99465.89;261486;1101;23542;-76
2020/12/17 17:03:26;;;;;;;19.77;11.30;;;;;;;3.21;78.86;99460.00;261376;1101;23569;-76
2020/12/17 17:08:28;;;;;;;16.90;10.65;;;;;;;3.20;79.84;99455.72;261419;1101;23566;-76
2020/12/17 17:13:30;;;;;;;20.55;11.90;;;;;;;3.14;79.55;99461.92;261493;1101;23357;-76
2020/12/17 17:18:32;;;;;;;16.45;10.85;;;;;;;3.14;79.70;99467.22;261430;1101;23365;-75
2020/12/17 17:23:37;;;;;;;19.83;11.57;;;;;;;3.13;79.72;99449.70;261506;1101;26542;-76
2020/12/17 17:28:39;;;;;;;18.70;10.85;;;;;;;3.14;79.54;99461.13;261568;1101;23316;-77
2020/12/17 17:33:46;;;;;;;15.90;11.13;;;;;;;3.13;79.59;99465.59;261493;1101;23558;-77
2020/12/17 17:38:50;;;;;;;17.03;10.80;;;;;;;3.13;79.94;99462.95;261561;1101;23405;-76
2020/12/17 17:43:54;;;;;;;18.73;11.73;;;;;;;3.13;80.01;99462.95;261574;1101;23344;-76
2020/12/17 17:49:04;;;;;;;17.00;11.20;;;;;;;3.14;79.90;99480.45;261598;1101;23373;-77
2020/12/17 17:54:07;;;;;;;19.60;11.60;;;;;;;3.13;79.78;99470.09;261574;1101;23358;-77
2020/12/17 17:59:09;;;;;;;16.27;11.07;;;;;;;3.10;80.33;99476.63;261461;1101;23365;-75
2020/12/17 18:04:13;;;;;;;15.77;10.30;;;;;;;3.05;80.39;99476.48;261598;1101;23907;-77
2020/12/17 18:09:15;;;;;;;18.53;10.40;;;;;;;3.03;80.68;99470.61;261572;1101;23442;-76
2020/12/17 18:14:17;;;;;;;17.10;9.87;;;;;;;3.00;81.42;99476.36;261481;1101;23380;-76
2020/12/17 18:19:21;;;;;;;13.43;8.57;;;;;;;2.94;80.98;99467.46;261560;1101;23330;-76
2020/12/17 18:24:23;;;;;;;13.85;8.00;;;;;;;2.89;81.09;99470.75;261477;1101;26829;-76
2020/12/17 18:29:26;;;;;;;18.10;9.07;;;;;;;2.89;81.10;99462.02;261831;1102;23354;-77
2020/12/17 18:34:31;;;;;;;14.40;7.00;;;;;;;2.84;81.37;99467.97;261642;1101;23775;-77
2020/12/17 18:39:38;;;;;;;14.63;8.63;;;;;;;2.83;81.69;99468.20;261698;1101;26324;-76
2020/12/17 18:44:40;;;;;;;14.60;7.77;;;;;;;2.82;80.99;99479.80;261783;1101;23362;-77
2020/12/17 18:49:47;;;;;;;18.67;8.67;;;;;;;2.81;81.44;99491.41;261488;1101;23365;-77
2020/12/17 18:54:48;;;;;;;17.30;8.63;;;;;;;2.81;81.44;99484.30;261648;1101;23497;-76
2020/12/17 18:59:54;;;;;;;14.00;7.90;;;;;;;2.82;81.31;99500.97;262065;1101;23405;-77
2020/12/17 19:04:56;;;;;;;15.70;8.40;;;;;;;2.83;81.60;99494.66;261465;1101;23422;-74
2020/12/17 19:09:58;;;;;;;19.00;11.10;;;;;;;2.82;81.07;99512.36;261586;1101;23478;-76
2020/12/17 19:15:01;;;;;;;21.50;12.50;;;;;;;2.78;81.65;99505.09;261563;1101;23424;-76
2020/12/17 19:20:04;;;;;;;19.50;10.60;;;;;;;2.78;81.74;99505.88;261566;1101;23366;-77
2020/12/17 19:25:07;;;;;;;17.40;11.00;;;;;;;2.79;81.15;99507.51;261875;1101;23332;-75
2020/12/17 19:30:10;;;;;;;20.97;10.07;;;;;;;2.75;81.75;99511.62;261738;1101;23325;-76
2020/12/17 19:35:12;;;;;;;19.27;10.63;;;;;;;2.72;81.82;99520.00;261424;1101;26568;-77
2020/12/17 19:40:14;;;;;;;19.05;10.65;;;;;;;2.69;81.53;99533.67;261457;1101;23408;-76
2020/12/17 19:45:16;;;;;;;20.55;10.20;;;;;;;2.70;81.10;99540.55;261554;1102;23688;-78
2020/12/17 19:50:21;;;;;;;17.30;10.10;;;;;;;2.69;81.31;99545.05;261547;1101;23420;-76
2020/12/17 19:55:23;;;;;;;16.87;10.50;;;;;;;2.69;81.63;99544.25;261567;1101;23404;-76
2020/12/17 20:00:25;;;;;;;18.73;9.53;;;;;;;2.72;81.18;99562.33;261568;1101;23428;-76
2020/12/17 20:05:28;;;;;;;18.03;9.23;;;;;;;2.72;81.31;99559.69;261766;1101;23365;-77
2020/12/17 20:10:30;;;;;;;15.73;9.07;;;;;;;2.72;81.46;99560.48;261770;1101;25617;-76
2020/12/17 20:15:32;;;;;;;14.27;8.27;;;;;;;2.70;81.13;99559.91;261544;1102;23361;-76
2020/12/17 20:20:37;;;;;;;15.30;8.00;;;;;;;2.71;80.74;99558.05;261539;1101;23502;-76
2020/12/17 20:25:39;;;;;;;16.83;9.60;;;;;;;2.68;81.14;99559.30;261516;1101;28240;-77
2020/12/17 20:30:44;;;;;;;17.73;9.90;;;;;;;2.68;80.88;99563.79;261754;1102;23559;-77
2020/12/17 20:35:55;;;;;;;14.47;8.67;;;;;;;2.67;81.30;99554.23;261404;1101;23405;-77
2020/12/17 20:40:57;;;;;;;17.40;9.67;;;;;;;2.67;80.90;99551.58;261413;1097;23546;-76
2020/12/17 20:46:11;;;;;;;15.78;9.08;;;;;;;2.66;80.93;99552.59;261561;1102;23431;-76
2020/12/17 20:51:22;;;;;;;16.45;8.85;;;;;;;2.64;80.99;99549.38;261661;1101;23432;-77
2020/12/17 20:56:24;;;;;;;17.77;9.73;;;;;;;2.62;81.12;99554.09;261682;1101;23417;-77
2020/12/17 21:01:28;;;;;;;18.20;10.33;;;;;;;2.60;80.78;99564.06;261694;1101;23411;-76
2020/12/17 21:06:30;;;;;;;18.00;10.23;;;;;;;2.54;81.24;99561.24;261567;1101;23421;-77
2020/12/17 21:11:35;;;;;;;17.03;9.50;;;;;;;2.56;80.60;99566.31;261594;1101;23389;-76
2020/12/17 21:16:36;;;;;;;16.50;8.50;;;;;;;2.52;80.62;99560.66;261675;1101;23631;-77
2020/12/17 21:21:41;;;;;;;16.95;8.90;;;;;;;2.52;81.19;99568.59;261547;1101;23484;-77
2020/12/17 21:26:43;;;;;;;17.83;9.20;;;;;;;2.51;81.16;99564.33;261511;1101;23355;-77
2020/12/17 21:31:51;;;;;;;17.40;8.93;;;;;;;2.51;80.63;99566.97;261403;1101;23349;-77
2020/12/17 21:36:54;;;;;;;17.07;8.70;;;;;;;2.51;80.56;99572.26;261676;1101;23420;-76
2020/12/17 21:41:56;;;;;;;15.10;8.07;;;;;;;2.47;80.54;99578.20;261528;1102;23420;-76
2020/12/17 21:46:59;;;;;;;17.23;10.17;;;;;;;2.47;81.01;99572.91;261490;1101;23431;-76
2020/12/17 21:52:03;;;;;;;18.70;9.43;;;;;;;2.47;81.18;99581.65;261426;1102;23369;-77
2020/12/17 21:57:09;;;;;;;19.10;9.30;;;;;;;2.43;81.21;99577.81;261512;1101;23420;-76
2020/12/17 22:02:11;;;;;;;19.07;10.03;;;;;;;2.42;81.08;99580.67;261485;1101;23362;-75
2020/12/17 22:07:13;;;;;;;19.10;9.40;;;;;;;2.38;81.20;99567.09;261462;1101;23419;-75
2020/12/17 22:12:16;;;;;;;18.20;9.70;;;;;;;2.35;81.58;99573.61;261426;1101;23365;-75
2020/12/17 22:17:20;;;;;;;18.90;9.63;;;;;;;2.35;80.83;99576.26;261582;1101;23625;-76
2020/12/17 22:22:23;;;;;;;17.23;10.10;;;;;;;2.37;80.93;99586.61;261504;1101;23322;-76
2020/12/17 22:27:24;;;;;;;20.53;9.63;;;;;;;2.39;81.38;99579.27;261616;1101;23400;-77
2020/12/17 22:32:27;;;;;;;16.23;8.17;;;;;;;2.38;81.24;99585.59;261489;1102;23462;-76
2020/12/17 22:37:29;;;;;;;15.40;8.25;;;;;;;2.38;80.97;99596.18;261600;1101;23325;-76
2020/12/17 22:42:33;;;;;;;21.20;10.13;;;;;;;2.39;81.51;99582.73;261572;1101;23355;-75
2020/12/17 22:47:37;;;;;;;21.10;9.20;;;;;;;2.38;82.03;99575.02;261649;1101;23405;-77
2020/12/17 22:52:40;;;;;;;22.70;10.83;;;;;;;2.41;81.85;99579.88;261540;1101;23357;-76
2020/12/17 22:57:42;;;;;;;22.80;11.30;;;;;;;2.44;81.47;99574.15;261574;1101;23381;-76
2020/12/17 23:02:44;;;;;;;18.80;10.87;;;;;;;2.46;81.76;99581.87;261614;1101;23371;-76
2020/12/17 23:07:49;;;;;;;20.97;10.80;;;;;;;2.49;81.23;99574.33;261513;1101;23357;-76
2020/12/17 23:12:51;;;;;;;22.33;10.43;;;;;;;2.49;81.48;99581.43;261572;1101;23492;-76
2020/12/17 23:17:54;;;;;;;21.50;11.00;;;;;;;2.48;81.26;99591.21;261578;1101;23388;-76
2020/12/17 23:22:56;;;;;;;21.40;11.23;;;;;;;2.49;81.27;99598.13;261581;1101;23392;-76